sensor_id;sensor_type;location;lat;lon;timestamp;P1;durP1;ratioP1;P2;durP2;ratioP2
24761;SDS011;12865;51.934;10.330;2024-01-07T00:01:51;30.17;;;20.73;;
24761;SDS011;12865;51.934;10.330;2024-01-07T00:04:36;32.97;;;21.73;;
24761;SDS011;12865;51.934;10.330;2024-01-07T00:07:22;29.30;;;20.50;;
24761;SDS011;12865;51.934;10.330;2024-01-07T00:10:08;26.90;;;21.55;;
24761;SDS011;12865;51.934;10.330;2024-01-07T00:12:55;27.70;;;21.25;;
24761;SDS011;12865;51.934;10.330;2024-01-07T00:15:40;31.30;;;22.38;;
24761;SDS011;12865;51.934;10.330;2024-01-07T00:18:26;28.35;;;21.83;;
24761;SDS011;12865;51.934;10.330;2024-01-07T00:21:12;32.33;;;23.15;;
24761;SDS011;12865;51.934;10.330;2024-01-07T00:23:58;30.60;;;23.00;;
24761;SDS011;12865;51.934;10.330;2024-01-07T00:26:43;27.75;;;22.45;;
24761;SDS011;12865;51.934;10.330;2024-01-07T00:29:29;28.73;;;22.15;;
24761;SDS011;12865;51.934;10.330;2024-01-07T00:32:15;30.65;;;22.45;;
24761;SDS011;12865;51.934;10.330;2024-01-07T00:35:01;28.10;;;21.30;;
24761;SDS011;12865;51.934;10.330;2024-01-07T00:37:47;29.13;;;23.13;;
24761;SDS011;12865;51.934;10.330;2024-01-07T00:40:33;28.80;;;21.40;;
24761;SDS011;12865;51.934;10.330;2024-01-07T00:43:19;30.88;;;24.02;;
24761;SDS011;12865;51.934;10.330;2024-01-07T00:46:04;32.92;;;23.45;;
24761;SDS011;12865;51.934;10.330;2024-01-07T00:48:50;30.50;;;24.00;;
24761;SDS011;12865;51.934;10.330;2024-01-07T00:51:36;30.55;;;24.10;;
24761;SDS011;12865;51.934;10.330;2024-01-07T00:54:21;28.42;;;23.17;;
24761;SDS011;12865;51.934;10.330;2024-01-07T00:57:07;29.20;;;22.58;;
24761;SDS011;12865;51.934;10.330;2024-01-07T00:59:53;25.17;;;20.40;;
24761;SDS011;12865;51.934;10.330;2024-01-07T01:02:38;25.17;;;19.52;;
24761;SDS011;12865;51.934;10.330;2024-01-07T01:05:24;25.17;;;19.63;;
24761;SDS011;12865;51.934;10.330;2024-01-07T01:08:09;25.50;;;20.40;;
24761;SDS011;12865;51.934;10.330;2024-01-07T01:10:55;24.23;;;18.95;;
24761;SDS011;12865;51.934;10.330;2024-01-07T01:13:41;24.65;;;19.92;;
24761;SDS011;12865;51.934;10.330;2024-01-07T01:16:26;24.02;;;18.98;;
24761;SDS011;12865;51.934;10.330;2024-01-07T01:19:12;25.05;;;18.95;;
24761;SDS011;12865;51.934;10.330;2024-01-07T01:21:58;22.65;;;17.67;;
24761;SDS011;12865;51.934;10.330;2024-01-07T01:24:44;20.95;;;18.30;;
24761;SDS011;12865;51.934;10.330;2024-01-07T01:27:31;21.58;;;18.05;;
24761;SDS011;12865;51.934;10.330;2024-01-07T01:30:16;21.90;;;17.15;;
24761;SDS011;12865;51.934;10.330;2024-01-07T01:33:02;22.35;;;18.25;;
24761;SDS011;12865;51.934;10.330;2024-01-07T01:35:48;22.25;;;17.35;;
24761;SDS011;12865;51.934;10.330;2024-01-07T01:38:34;21.15;;;16.73;;
24761;SDS011;12865;51.934;10.330;2024-01-07T01:41:19;21.48;;;16.85;;
24761;SDS011;12865;51.934;10.330;2024-01-07T01:44:05;22.13;;;18.33;;
24761;SDS011;12865;51.934;10.330;2024-01-07T01:46:51;21.75;;;18.60;;
24761;SDS011;12865;51.934;10.330;2024-01-07T01:49:36;20.27;;;17.08;;
24761;SDS011;12865;51.934;10.330;2024-01-07T01:52:23;22.17;;;18.80;;
24761;SDS011;12865;51.934;10.330;2024-01-07T01:55:09;19.63;;;17.10;;
24761;SDS011;12865;51.934;10.330;2024-01-07T01:57:55;19.70;;;17.58;;
24761;SDS011;12865;51.934;10.330;2024-01-07T02:00:45;22.08;;;18.38;;
24761;SDS011;12865;51.934;10.330;2024-01-07T02:03:30;20.10;;;16.95;;
24761;SDS011;12865;51.934;10.330;2024-01-07T02:06:16;22.55;;;17.67;;
24761;SDS011;12865;51.934;10.330;2024-01-07T02:09:02;19.70;;;17.60;;
24761;SDS011;12865;51.934;10.330;2024-01-07T02:12:04;20.65;;;17.58;;
24761;SDS011;12865;51.934;10.330;2024-01-07T02:14:50;20.70;;;18.02;;
24761;SDS011;12865;51.934;10.330;2024-01-07T02:17:36;20.17;;;17.52;;
24761;SDS011;12865;51.934;10.330;2024-01-07T02:20:22;15.93;;;14.10;;
24761;SDS011;12865;51.934;10.330;2024-01-07T02:23:08;15.75;;;14.05;;
24761;SDS011;12865;51.934;10.330;2024-01-07T02:25:54;15.93;;;14.23;;
24761;SDS011;12865;51.934;10.330;2024-01-07T02:28:39;15.57;;;13.52;;
24761;SDS011;12865;51.934;10.330;2024-01-07T02:31:25;14.80;;;13.15;;
24761;SDS011;12865;51.934;10.330;2024-01-07T02:34:11;14.20;;;12.70;;
24761;SDS011;12865;51.934;10.330;2024-01-07T02:36:56;14.15;;;12.65;;
24761;SDS011;12865;51.934;10.330;2024-01-07T02:39:42;13.55;;;12.15;;
24761;SDS011;12865;51.934;10.330;2024-01-07T02:42:29;12.95;;;11.38;;
24761;SDS011;12865;51.934;10.330;2024-01-07T02:45:15;13.35;;;11.95;;
24761;SDS011;12865;51.934;10.330;2024-01-07T02:48:01;12.95;;;11.15;;
24761;SDS011;12865;51.934;10.330;2024-01-07T02:50:46;12.35;;;11.07;;
24761;SDS011;12865;51.934;10.330;2024-01-07T02:53:32;13.23;;;11.90;;
24761;SDS011;12865;51.934;10.330;2024-01-07T02:56:18;12.63;;;11.32;;
24761;SDS011;12865;51.934;10.330;2024-01-07T02:59:03;14.57;;;12.30;;
24761;SDS011;12865;51.934;10.330;2024-01-07T03:01:49;14.05;;;12.00;;
24761;SDS011;12865;51.934;10.330;2024-01-07T03:04:34;13.48;;;11.65;;
24761;SDS011;12865;51.934;10.330;2024-01-07T03:07:20;17.05;;;11.93;;
24761;SDS011;12865;51.934;10.330;2024-01-07T03:10:06;13.43;;;11.82;;
24761;SDS011;12865;51.934;10.330;2024-01-07T03:12:52;12.88;;;11.57;;
24761;SDS011;12865;51.934;10.330;2024-01-07T03:15:37;14.07;;;11.73;;
24761;SDS011;12865;51.934;10.330;2024-01-07T03:18:23;13.75;;;10.57;;
24761;SDS011;12865;51.934;10.330;2024-01-07T03:21:15;13.80;;;10.82;;
24761;SDS011;12865;51.934;10.330;2024-01-07T03:24:02;12.60;;;10.93;;
24761;SDS011;12865;51.934;10.330;2024-01-07T03:26:48;12.07;;;10.85;;
24761;SDS011;12865;51.934;10.330;2024-01-07T03:29:33;11.68;;;10.55;;
24761;SDS011;12865;51.934;10.330;2024-01-07T03:32:21;14.30;;;10.68;;
24761;SDS011;12865;51.934;10.330;2024-01-07T03:35:07;15.60;;;11.40;;
24761;SDS011;12865;51.934;10.330;2024-01-07T03:37:54;11.18;;;10.00;;
24761;SDS011;12865;51.934;10.330;2024-01-07T03:40:40;11.60;;;10.32;;
24761;SDS011;12865;51.934;10.330;2024-01-07T03:43:25;11.95;;;10.15;;
24761;SDS011;12865;51.934;10.330;2024-01-07T03:46:11;12.95;;;9.90;;
24761;SDS011;12865;51.934;10.330;2024-01-07T03:48:57;11.18;;;9.70;;
24761;SDS011;12865;51.934;10.330;2024-01-07T03:51:42;11.27;;;9.18;;
24761;SDS011;12865;51.934;10.330;2024-01-07T03:54:28;10.10;;;7.93;;
24761;SDS011;12865;51.934;10.330;2024-01-07T03:57:13;10.77;;;8.10;;
24761;SDS011;12865;51.934;10.330;2024-01-07T03:59:59;8.68;;;7.78;;
24761;SDS011;12865;51.934;10.330;2024-01-07T04:02:45;10.35;;;8.23;;
24761;SDS011;12865;51.934;10.330;2024-01-07T04:05:30;11.23;;;8.02;;
24761;SDS011;12865;51.934;10.330;2024-01-07T04:08:16;8.90;;;7.63;;
24761;SDS011;12865;51.934;10.330;2024-01-07T04:11:02;10.02;;;7.90;;
24761;SDS011;12865;51.934;10.330;2024-01-07T04:13:48;10.05;;;8.68;;
24761;SDS011;12865;51.934;10.330;2024-01-07T04:16:33;10.85;;;8.15;;
24761;SDS011;12865;51.934;10.330;2024-01-07T04:19:19;10.27;;;8.43;;
24761;SDS011;12865;51.934;10.330;2024-01-07T04:22:05;9.35;;;8.30;;
24761;SDS011;12865;51.934;10.330;2024-01-07T04:24:50;10.32;;;8.82;;
24761;SDS011;12865;51.934;10.330;2024-01-07T04:27:39;11.77;;;9.48;;
24761;SDS011;12865;51.934;10.330;2024-01-07T04:30:24;9.15;;;8.15;;
24761;SDS011;12865;51.934;10.330;2024-01-07T04:33:10;9.65;;;8.35;;
24761;SDS011;12865;51.934;10.330;2024-01-07T04:35:56;10.07;;;8.85;;
24761;SDS011;12865;51.934;10.330;2024-01-07T04:38:43;12.68;;;9.38;;
24761;SDS011;12865;51.934;10.330;2024-01-07T04:41:29;10.10;;;8.88;;
24761;SDS011;12865;51.934;10.330;2024-01-07T04:44:14;10.02;;;9.00;;
24761;SDS011;12865;51.934;10.330;2024-01-07T04:47:00;9.68;;;8.68;;
24761;SDS011;12865;51.934;10.330;2024-01-07T04:49:45;11.52;;;8.88;;
24761;SDS011;12865;51.934;10.330;2024-01-07T04:52:31;11.88;;;8.85;;
24761;SDS011;12865;51.934;10.330;2024-01-07T04:55:17;11.18;;;7.85;;
24761;SDS011;12865;51.934;10.330;2024-01-07T04:58:03;12.40;;;8.38;;
24761;SDS011;12865;51.934;10.330;2024-01-07T05:00:50;13.05;;;8.85;;
24761;SDS011;12865;51.934;10.330;2024-01-07T05:03:35;8.95;;;7.75;;
24761;SDS011;12865;51.934;10.330;2024-01-07T05:06:21;10.27;;;7.72;;
24761;SDS011;12865;51.934;10.330;2024-01-07T05:09:07;10.45;;;7.50;;
24761;SDS011;12865;51.934;10.330;2024-01-07T05:11:52;10.35;;;7.20;;
24761;SDS011;12865;51.934;10.330;2024-01-07T05:14:38;8.68;;;7.07;;
24761;SDS011;12865;51.934;10.330;2024-01-07T05:17:24;9.02;;;7.20;;
24761;SDS011;12865;51.934;10.330;2024-01-07T05:20:09;7.82;;;6.40;;
24761;SDS011;12865;51.934;10.330;2024-01-07T05:22:55;7.68;;;6.38;;
24761;SDS011;12865;51.934;10.330;2024-01-07T05:25:44;7.32;;;6.40;;
24761;SDS011;12865;51.934;10.330;2024-01-07T05:31:16;9.80;;;6.20;;
24761;SDS011;12865;51.934;10.330;2024-01-07T05:34:05;7.13;;;6.38;;
24761;SDS011;12865;51.934;10.330;2024-01-07T05:36:51;6.95;;;5.25;;
24761;SDS011;12865;51.934;10.330;2024-01-07T05:39:37;7.82;;;6.10;;
24761;SDS011;12865;51.934;10.330;2024-01-07T05:42:22;7.50;;;6.72;;
24761;SDS011;12865;51.934;10.330;2024-01-07T05:45:08;8.23;;;6.03;;
24761;SDS011;12865;51.934;10.330;2024-01-07T05:47:54;6.03;;;5.45;;
24761;SDS011;12865;51.934;10.330;2024-01-07T05:50:39;6.43;;;4.90;;
24761;SDS011;12865;51.934;10.330;2024-01-07T05:53:25;7.85;;;5.82;;
24761;SDS011;12865;51.934;10.330;2024-01-07T05:56:11;5.55;;;4.78;;
24761;SDS011;12865;51.934;10.330;2024-01-07T05:58:56;7.13;;;4.68;;
24761;SDS011;12865;51.934;10.330;2024-01-07T06:01:42;5.45;;;4.50;;
24761;SDS011;12865;51.934;10.330;2024-01-07T06:04:28;5.65;;;4.25;;
24761;SDS011;12865;51.934;10.330;2024-01-07T06:07:13;5.18;;;4.63;;
24761;SDS011;12865;51.934;10.330;2024-01-07T06:09:59;6.70;;;4.93;;
24761;SDS011;12865;51.934;10.330;2024-01-07T06:12:45;4.60;;;4.20;;
24761;SDS011;12865;51.934;10.330;2024-01-07T06:15:31;6.13;;;4.68;;
24761;SDS011;12865;51.934;10.330;2024-01-07T06:18:16;6.00;;;4.18;;
24761;SDS011;12865;51.934;10.330;2024-01-07T06:21:02;5.47;;;4.50;;
24761;SDS011;12865;51.934;10.330;2024-01-07T06:23:48;5.93;;;4.70;;
24761;SDS011;12865;51.934;10.330;2024-01-07T06:26:34;7.78;;;4.63;;
24761;SDS011;12865;51.934;10.330;2024-01-07T06:29:20;6.35;;;4.30;;
24761;SDS011;12865;51.934;10.330;2024-01-07T06:32:05;5.70;;;5.07;;
24761;SDS011;12865;51.934;10.330;2024-01-07T06:34:51;7.18;;;5.57;;
24761;SDS011;12865;51.934;10.330;2024-01-07T06:37:37;6.82;;;5.07;;
24761;SDS011;12865;51.934;10.330;2024-01-07T06:40:23;5.97;;;4.90;;
24761;SDS011;12865;51.934;10.330;2024-01-07T06:43:09;4.65;;;4.20;;
24761;SDS011;12865;51.934;10.330;2024-01-07T06:45:55;4.88;;;4.32;;
24761;SDS011;12865;51.934;10.330;2024-01-07T06:48:40;4.95;;;4.45;;
24761;SDS011;12865;51.934;10.330;2024-01-07T06:51:26;5.13;;;4.40;;
24761;SDS011;12865;51.934;10.330;2024-01-07T06:54:12;6.82;;;4.93;;
24761;SDS011;12865;51.934;10.330;2024-01-07T06:56:57;5.47;;;4.60;;
24761;SDS011;12865;51.934;10.330;2024-01-07T06:59:43;5.38;;;4.30;;
24761;SDS011;12865;51.934;10.330;2024-01-07T07:02:29;4.75;;;4.35;;
24761;SDS011;12865;51.934;10.330;2024-01-07T07:05:14;6.47;;;5.05;;
24761;SDS011;12865;51.934;10.330;2024-01-07T07:08:01;5.28;;;4.68;;
24761;SDS011;12865;51.934;10.330;2024-01-07T07:10:47;4.20;;;3.80;;
24761;SDS011;12865;51.934;10.330;2024-01-07T07:13:33;4.65;;;3.83;;
24761;SDS011;12865;51.934;10.330;2024-01-07T07:16:18;4.30;;;3.90;;
24761;SDS011;12865;51.934;10.330;2024-01-07T07:19:04;6.47;;;4.43;;
24761;SDS011;12865;51.934;10.330;2024-01-07T07:21:49;6.30;;;4.18;;
24761;SDS011;12865;51.934;10.330;2024-01-07T07:24:38;5.20;;;4.68;;
24761;SDS011;12865;51.934;10.330;2024-01-07T07:27:26;5.35;;;4.50;;
24761;SDS011;12865;51.934;10.330;2024-01-07T07:30:11;4.82;;;4.43;;
24761;SDS011;12865;51.934;10.330;2024-01-07T07:32:57;6.32;;;5.72;;
24761;SDS011;12865;51.934;10.330;2024-01-07T07:35:43;6.00;;;5.50;;
24761;SDS011;12865;51.934;10.330;2024-01-07T07:38:28;6.15;;;5.60;;
24761;SDS011;12865;51.934;10.330;2024-01-07T07:41:14;8.30;;;5.28;;
24761;SDS011;12865;51.934;10.330;2024-01-07T07:44:00;5.97;;;5.20;;
24761;SDS011;12865;51.934;10.330;2024-01-07T07:46:45;6.28;;;5.57;;
24761;SDS011;12865;51.934;10.330;2024-01-07T07:49:31;5.47;;;4.97;;
24761;SDS011;12865;51.934;10.330;2024-01-07T07:52:16;5.45;;;4.82;;
24761;SDS011;12865;51.934;10.330;2024-01-07T07:55:07;7.22;;;5.10;;
24761;SDS011;12865;51.934;10.330;2024-01-07T07:57:53;5.80;;;5.20;;
24761;SDS011;12865;51.934;10.330;2024-01-07T08:00:38;5.90;;;5.30;;
24761;SDS011;12865;51.934;10.330;2024-01-07T08:03:24;5.32;;;4.70;;
24761;SDS011;12865;51.934;10.330;2024-01-07T08:06:10;7.00;;;5.03;;
24761;SDS011;12865;51.934;10.330;2024-01-07T08:08:55;6.80;;;5.30;;
24761;SDS011;12865;51.934;10.330;2024-01-07T08:11:41;5.63;;;5.07;;
24761;SDS011;12865;51.934;10.330;2024-01-07T08:14:27;5.82;;;4.97;;
24761;SDS011;12865;51.934;10.330;2024-01-07T08:17:12;5.72;;;4.60;;
24761;SDS011;12865;51.934;10.330;2024-01-07T08:19:58;5.15;;;4.60;;
24761;SDS011;12865;51.934;10.330;2024-01-07T08:22:44;4.63;;;4.22;;
24761;SDS011;12865;51.934;10.330;2024-01-07T08:25:29;4.40;;;4.00;;
24761;SDS011;12865;51.934;10.330;2024-01-07T08:28:15;5.55;;;4.65;;
24761;SDS011;12865;51.934;10.330;2024-01-07T08:31:01;6.57;;;4.13;;
24761;SDS011;12865;51.934;10.330;2024-01-07T08:33:46;4.10;;;3.47;;
24761;SDS011;12865;51.934;10.330;2024-01-07T08:36:32;5.63;;;4.05;;
24761;SDS011;12865;51.934;10.330;2024-01-07T08:39:18;4.93;;;3.83;;
24761;SDS011;12865;51.934;10.330;2024-01-07T08:42:03;4.80;;;4.25;;
24761;SDS011;12865;51.934;10.330;2024-01-07T08:44:49;5.85;;;4.25;;
24761;SDS011;12865;51.934;10.330;2024-01-07T08:47:35;4.25;;;3.95;;
24761;SDS011;12865;51.934;10.330;2024-01-07T08:50:21;4.72;;;4.32;;
24761;SDS011;12865;51.934;10.330;2024-01-07T08:53:07;4.93;;;4.43;;
24761;SDS011;12865;51.934;10.330;2024-01-07T08:55:53;4.75;;;4.30;;
24761;SDS011;12865;51.934;10.330;2024-01-07T08:58:40;4.47;;;4.07;;
24761;SDS011;12865;51.934;10.330;2024-01-07T09:01:26;6.22;;;4.28;;
24761;SDS011;12865;51.934;10.330;2024-01-07T09:04:12;5.00;;;4.35;;
24761;SDS011;12865;51.934;10.330;2024-01-07T09:06:58;5.00;;;4.50;;
24761;SDS011;12865;51.934;10.330;2024-01-07T09:09:43;5.15;;;4.57;;
24761;SDS011;12865;51.934;10.330;2024-01-07T09:12:29;5.68;;;4.97;;
24761;SDS011;12865;51.934;10.330;2024-01-07T09:15:15;6.10;;;5.20;;
24761;SDS011;12865;51.934;10.330;2024-01-07T09:18:03;4.95;;;4.45;;
24761;SDS011;12865;51.934;10.330;2024-01-07T09:20:49;4.35;;;3.95;;
24761;SDS011;12865;51.934;10.330;2024-01-07T09:23:35;5.85;;;5.15;;
24761;SDS011;12865;51.934;10.330;2024-01-07T09:26:21;6.25;;;5.15;;
24761;SDS011;12865;51.934;10.330;2024-01-07T09:29:07;5.93;;;5.32;;
24761;SDS011;12865;51.934;10.330;2024-01-07T09:31:52;5.22;;;4.70;;
24761;SDS011;12865;51.934;10.330;2024-01-07T09:34:38;5.28;;;4.50;;
24761;SDS011;12865;51.934;10.330;2024-01-07T09:37:24;5.30;;;4.78;;
24761;SDS011;12865;51.934;10.330;2024-01-07T09:40:11;4.70;;;4.30;;
24761;SDS011;12865;51.934;10.330;2024-01-07T09:42:57;5.07;;;4.55;;
24761;SDS011;12865;51.934;10.330;2024-01-07T09:45:45;5.05;;;4.55;;
24761;SDS011;12865;51.934;10.330;2024-01-07T09:48:33;5.05;;;4.65;;
24761;SDS011;12865;51.934;10.330;2024-01-07T09:51:20;5.38;;;4.50;;
24761;SDS011;12865;51.934;10.330;2024-01-07T09:54:08;5.45;;;4.82;;
24761;SDS011;12865;51.934;10.330;2024-01-07T09:57:02;5.63;;;4.40;;
24761;SDS011;12865;51.934;10.330;2024-01-07T09:59:51;6.50;;;4.50;;
24761;SDS011;12865;51.934;10.330;2024-01-07T10:02:38;5.13;;;4.47;;
24761;SDS011;12865;51.934;10.330;2024-01-07T10:05:26;5.07;;;4.50;;
24761;SDS011;12865;51.934;10.330;2024-01-07T10:08:12;6.38;;;4.70;;
24761;SDS011;12865;51.934;10.330;2024-01-07T10:10:58;8.02;;;5.53;;
24761;SDS011;12865;51.934;10.330;2024-01-07T10:13:46;5.82;;;5.30;;
24761;SDS011;12865;51.934;10.330;2024-01-07T10:16:37;7.15;;;6.30;;
24761;SDS011;12865;51.934;10.330;2024-01-07T10:19:23;6.82;;;6.20;;
24761;SDS011;12865;51.934;10.330;2024-01-07T10:22:09;6.45;;;5.85;;
24761;SDS011;12865;51.934;10.330;2024-01-07T10:24:57;6.20;;;5.60;;
24761;SDS011;12865;51.934;10.330;2024-01-07T10:27:43;7.78;;;6.75;;
24761;SDS011;12865;51.934;10.330;2024-01-07T10:30:29;7.13;;;6.45;;
24761;SDS011;12865;51.934;10.330;2024-01-07T10:33:16;8.93;;;7.75;;
24761;SDS011;12865;51.934;10.330;2024-01-07T10:36:02;8.50;;;7.47;;
24761;SDS011;12865;51.934;10.330;2024-01-07T10:38:51;11.13;;;9.93;;
24761;SDS011;12865;51.934;10.330;2024-01-07T10:41:37;9.10;;;8.20;;
24761;SDS011;12865;51.934;10.330;2024-01-07T10:44:25;15.60;;;14.13;;
24761;SDS011;12865;51.934;10.330;2024-01-07T10:47:12;12.90;;;11.75;;
24761;SDS011;12865;51.934;10.330;2024-01-07T10:50:00;25.20;;;23.17;;
24761;SDS011;12865;51.934;10.330;2024-01-07T10:52:51;19.90;;;18.25;;
24761;SDS011;12865;51.934;10.330;2024-01-07T10:55:54;9.05;;;8.20;;
24761;SDS011;12865;51.934;10.330;2024-01-07T10:58:53;17.45;;;15.65;;
24761;SDS011;12865;51.934;10.330;2024-01-07T11:01:39;12.30;;;11.13;;
24761;SDS011;12865;51.934;10.330;2024-01-07T11:07:35;8.57;;;7.50;;
24761;SDS011;12865;51.934;10.330;2024-01-07T11:10:30;10.88;;;9.75;;
24761;SDS011;12865;51.934;10.330;2024-01-07T11:13:35;9.57;;;7.03;;
24761;SDS011;12865;51.934;10.330;2024-01-07T11:19:38;6.60;;;6.00;;
24761;SDS011;12865;51.934;10.330;2024-01-07T11:22:36;6.30;;;5.70;;
24761;SDS011;12865;51.934;10.330;2024-01-07T11:25:29;7.18;;;6.45;;
24761;SDS011;12865;51.934;10.330;2024-01-07T11:28:16;7.03;;;6.25;;
24761;SDS011;12865;51.934;10.330;2024-01-07T11:31:02;8.48;;;7.68;;
24761;SDS011;12865;51.934;10.330;2024-01-07T11:33:48;8.10;;;7.28;;
24761;SDS011;12865;51.934;10.330;2024-01-07T11:36:35;7.75;;;6.82;;
24761;SDS011;12865;51.934;10.330;2024-01-07T11:39:21;9.35;;;8.35;;
24761;SDS011;12865;51.934;10.330;2024-01-07T11:42:07;9.60;;;8.70;;
24761;SDS011;12865;51.934;10.330;2024-01-07T11:44:53;9.63;;;8.20;;
24761;SDS011;12865;51.934;10.330;2024-01-07T11:47:39;11.35;;;10.10;;
24761;SDS011;12865;51.934;10.330;2024-01-07T11:50:25;15.45;;;12.82;;
24761;SDS011;12865;51.934;10.330;2024-01-07T11:53:13;11.30;;;10.10;;
24761;SDS011;12865;51.934;10.330;2024-01-07T11:55:59;21.55;;;15.73;;
24761;SDS011;12865;51.934;10.330;2024-01-07T11:58:44;17.15;;;13.93;;
24761;SDS011;12865;51.934;10.330;2024-01-07T12:01:30;10.13;;;9.15;;
24761;SDS011;12865;51.934;10.330;2024-01-07T12:04:16;12.30;;;11.00;;
24761;SDS011;12865;51.934;10.330;2024-01-07T12:07:02;9.50;;;8.63;;
24761;SDS011;12865;51.934;10.330;2024-01-07T12:09:55;9.95;;;8.95;;
24761;SDS011;12865;51.934;10.330;2024-01-07T12:15:09;10.27;;;9.32;;
24761;SDS011;12865;51.934;10.330;2024-01-07T12:17:56;11.63;;;8.25;;
24761;SDS011;12865;51.934;10.330;2024-01-07T12:20:54;10.77;;;9.70;;
24761;SDS011;12865;51.934;10.330;2024-01-07T12:23:43;11.45;;;9.23;;
24761;SDS011;12865;51.934;10.330;2024-01-07T12:26:29;12.65;;;11.32;;
24761;SDS011;12865;51.934;10.330;2024-01-07T12:29:15;8.18;;;7.45;;
24761;SDS011;12865;51.934;10.330;2024-01-07T12:32:04;8.23;;;7.20;;
24761;SDS011;12865;51.934;10.330;2024-01-07T12:34:50;8.75;;;7.85;;
24761;SDS011;12865;51.934;10.330;2024-01-07T12:37:36;8.15;;;7.35;;
24761;SDS011;12865;51.934;10.330;2024-01-07T12:40:22;9.13;;;7.85;;
24761;SDS011;12865;51.934;10.330;2024-01-07T12:43:10;12.45;;;10.68;;
24761;SDS011;12865;51.934;10.330;2024-01-07T12:45:55;10.65;;;8.02;;
24761;SDS011;12865;51.934;10.330;2024-01-07T12:48:42;8.73;;;7.82;;
24761;SDS011;12865;51.934;10.330;2024-01-07T12:51:28;7.15;;;6.55;;
24761;SDS011;12865;51.934;10.330;2024-01-07T12:54:14;8.68;;;6.88;;
24761;SDS011;12865;51.934;10.330;2024-01-07T12:57:00;7.95;;;7.15;;
24761;SDS011;12865;51.934;10.330;2024-01-07T12:59:45;12.55;;;11.35;;
24761;SDS011;12865;51.934;10.330;2024-01-07T13:02:31;8.70;;;7.68;;
24761;SDS011;12865;51.934;10.330;2024-01-07T13:05:18;9.00;;;8.10;;
24761;SDS011;12865;51.934;10.330;2024-01-07T13:08:04;11.48;;;10.32;;
24761;SDS011;12865;51.934;10.330;2024-01-07T13:10:50;7.35;;;6.43;;
24761;SDS011;12865;51.934;10.330;2024-01-07T13:13:36;19.10;;;17.10;;
24761;SDS011;12865;51.934;10.330;2024-01-07T13:16:21;17.17;;;13.30;;
24761;SDS011;12865;51.934;10.330;2024-01-07T13:19:08;10.77;;;9.68;;
24761;SDS011;12865;51.934;10.330;2024-01-07T13:21:56;8.52;;;7.68;;
24761;SDS011;12865;51.934;10.330;2024-01-07T13:24:43;10.40;;;8.88;;
24761;SDS011;12865;51.934;10.330;2024-01-07T13:27:29;9.25;;;7.90;;
24761;SDS011;12865;51.934;10.330;2024-01-07T13:30:14;7.82;;;7.03;;
24761;SDS011;12865;51.934;10.330;2024-01-07T13:33:01;9.43;;;7.32;;
24761;SDS011;12865;51.934;10.330;2024-01-07T13:35:48;13.25;;;9.57;;
24761;SDS011;12865;51.934;10.330;2024-01-07T13:38:34;10.15;;;8.48;;
24761;SDS011;12865;51.934;10.330;2024-01-07T13:41:19;9.38;;;8.35;;
24761;SDS011;12865;51.934;10.330;2024-01-07T13:44:05;9.10;;;7.80;;
24761;SDS011;12865;51.934;10.330;2024-01-07T13:46:52;10.25;;;9.02;;
24761;SDS011;12865;51.934;10.330;2024-01-07T13:49:38;10.68;;;8.48;;
24761;SDS011;12865;51.934;10.330;2024-01-07T13:52:24;9.82;;;8.93;;
24761;SDS011;12865;51.934;10.330;2024-01-07T13:55:10;9.38;;;8.38;;
24761;SDS011;12865;51.934;10.330;2024-01-07T13:57:55;10.65;;;9.65;;
24761;SDS011;12865;51.934;10.330;2024-01-07T14:00:41;14.23;;;11.27;;
24761;SDS011;12865;51.934;10.330;2024-01-07T14:03:27;10.63;;;8.80;;
24761;SDS011;12865;51.934;10.330;2024-01-07T14:06:12;9.07;;;8.07;;
24761;SDS011;12865;51.934;10.330;2024-01-07T14:08:58;8.70;;;6.88;;
24761;SDS011;12865;51.934;10.330;2024-01-07T14:11:44;11.10;;;10.05;;
24761;SDS011;12865;51.934;10.330;2024-01-07T14:14:30;10.45;;;9.52;;
24761;SDS011;12865;51.934;10.330;2024-01-07T14:17:16;8.20;;;7.40;;
24761;SDS011;12865;51.934;10.330;2024-01-07T14:20:02;8.68;;;7.90;;
24761;SDS011;12865;51.934;10.330;2024-01-07T14:22:49;12.15;;;6.13;;
24761;SDS011;12865;51.934;10.330;2024-01-07T14:25:35;5.72;;;5.15;;
24761;SDS011;12865;51.934;10.330;2024-01-07T14:28:20;6.93;;;6.28;;
24761;SDS011;12865;51.934;10.330;2024-01-07T14:31:06;13.35;;;11.95;;
24761;SDS011;12865;51.934;10.330;2024-01-07T14:33:52;10.23;;;8.45;;
24761;SDS011;12865;51.934;10.330;2024-01-07T14:36:41;7.78;;;6.97;;
24761;SDS011;12865;51.934;10.330;2024-01-07T14:39:28;8.48;;;6.95;;
24761;SDS011;12865;51.934;10.330;2024-01-07T14:42:14;11.18;;;8.50;;
24761;SDS011;12865;51.934;10.330;2024-01-07T14:44:59;17.40;;;13.40;;
24761;SDS011;12865;51.934;10.330;2024-01-07T14:47:45;16.38;;;12.35;;
24761;SDS011;12865;51.934;10.330;2024-01-07T14:50:31;13.50;;;10.77;;
24761;SDS011;12865;51.934;10.330;2024-01-07T14:53:16;15.45;;;11.00;;
24761;SDS011;12865;51.934;10.330;2024-01-07T14:56:02;13.10;;;9.27;;
24761;SDS011;12865;51.934;10.330;2024-01-07T14:58:48;11.43;;;10.23;;
24761;SDS011;12865;51.934;10.330;2024-01-07T15:01:34;9.60;;;7.05;;
24761;SDS011;12865;51.934;10.330;2024-01-07T15:04:20;7.78;;;6.68;;
24761;SDS011;12865;51.934;10.330;2024-01-07T15:07:05;11.60;;;8.48;;
24761;SDS011;12865;51.934;10.330;2024-01-07T15:09:51;9.68;;;8.23;;
24761;SDS011;12865;51.934;10.330;2024-01-07T15:12:37;8.45;;;7.53;;
24761;SDS011;12865;51.934;10.330;2024-01-07T15:15:23;47.35;;;28.95;;
24761;SDS011;12865;51.934;10.330;2024-01-07T15:18:14;8.95;;;7.25;;
24761;SDS011;12865;51.934;10.330;2024-01-07T15:21:00;7.57;;;6.63;;
24761;SDS011;12865;51.934;10.330;2024-01-07T15:23:46;7.85;;;7.00;;
24761;SDS011;12865;51.934;10.330;2024-01-07T15:26:31;12.98;;;9.60;;
24761;SDS011;12865;51.934;10.330;2024-01-07T15:29:20;10.90;;;8.95;;
24761;SDS011;12865;51.934;10.330;2024-01-07T15:32:05;10.45;;;8.95;;
24761;SDS011;12865;51.934;10.330;2024-01-07T15:34:51;9.88;;;8.50;;
24761;SDS011;12865;51.934;10.330;2024-01-07T15:37:37;10.55;;;8.50;;
24761;SDS011;12865;51.934;10.330;2024-01-07T15:40:23;14.38;;;11.73;;
24761;SDS011;12865;51.934;10.330;2024-01-07T15:43:10;14.32;;;12.57;;
24761;SDS011;12865;51.934;10.330;2024-01-07T15:45:57;17.00;;;13.70;;
24761;SDS011;12865;51.934;10.330;2024-01-07T15:48:43;27.35;;;20.52;;
24761;SDS011;12865;51.934;10.330;2024-01-07T15:51:29;12.57;;;10.90;;
24761;SDS011;12865;51.934;10.330;2024-01-07T15:54:15;11.95;;;9.88;;
24761;SDS011;12865;51.934;10.330;2024-01-07T15:57:00;12.57;;;11.25;;
24761;SDS011;12865;51.934;10.330;2024-01-07T15:59:47;10.57;;;9.07;;
24761;SDS011;12865;51.934;10.330;2024-01-07T16:02:33;14.32;;;10.45;;
24761;SDS011;12865;51.934;10.330;2024-01-07T16:05:19;11.45;;;10.35;;
24761;SDS011;12865;51.934;10.330;2024-01-07T16:08:04;12.02;;;10.63;;
24761;SDS011;12865;51.934;10.330;2024-01-07T16:10:50;18.05;;;15.57;;
24761;SDS011;12865;51.934;10.330;2024-01-07T16:13:36;13.45;;;10.80;;
24761;SDS011;12865;51.934;10.330;2024-01-07T16:16:21;10.00;;;8.93;;
24761;SDS011;12865;51.934;10.330;2024-01-07T16:19:08;10.82;;;9.77;;
24761;SDS011;12865;51.934;10.330;2024-01-07T16:21:56;6.90;;;5.70;;
24761;SDS011;12865;51.934;10.330;2024-01-07T16:24:43;7.40;;;6.25;;
24761;SDS011;12865;51.934;10.330;2024-01-07T16:27:29;8.60;;;7.38;;